createdAt,value
2023-01-09T00:00:13.610Z,8.68
2023-01-09T00:00:55.609Z,8.66
2023-01-09T00:01:40.817Z,8.72
2023-01-09T00:02:22.885Z,8.69
2023-01-09T00:03:04.535Z,8.73
2023-01-09T00:03:46.455Z,8.75
2023-01-09T00:04:28.095Z,8.50
2023-01-09T00:05:14.789Z,8.71
2023-01-09T00:05:56.837Z,8.62
2023-01-09T00:06:40.224Z,8.73
2023-01-09T00:07:21.957Z,8.75
2023-01-09T00:08:03.694Z,8.68
2023-01-09T00:08:45.350Z,8.76
2023-01-09T00:09:27.101Z,8.73
2023-01-09T00:10:10.598Z,8.72
2023-01-09T00:10:52.319Z,8.79
2023-01-09T00:11:33.953Z,8.81
2023-01-09T00:12:15.589Z,8.80
2023-01-09T00:12:57.200Z,8.77
2023-01-09T00:13:39.216Z,8.79
2023-01-09T00:14:22.843Z,8.74
2023-01-09T00:15:05.325Z,8.74
2023-01-09T00:15:48.834Z,8.80
2023-01-09T00:16:31.033Z,8.88
2023-01-09T00:17:12.719Z,8.77
2023-01-09T00:17:54.457Z,9.05
2023-01-09T00:18:37.010Z,9.12
2023-01-09T00:19:18.630Z,9.13
2023-01-09T00:20:00.391Z,9.20
2023-01-09T00:20:42.039Z,9.19
2023-01-09T00:21:23.742Z,9.17
2023-01-09T00:22:06.417Z,9.11
2023-01-09T00:22:48.043Z,9.05
2023-01-09T00:23:30.356Z,8.99
2023-01-09T00:24:11.953Z,8.95
2023-01-09T00:24:53.582Z,8.91
2023-01-09T00:25:35.693Z,8.86
2023-01-09T00:26:19.644Z,8.87
2023-01-09T00:27:01.306Z,8.84
2023-01-09T00:27:42.955Z,8.83
2023-01-09T00:28:24.570Z,8.81
2023-01-09T00:29:06.494Z,8.70
2023-01-09T00:29:49.469Z,8.68
2023-01-09T00:30:31.175Z,8.75
2023-01-09T00:31:13.587Z,8.66
2023-01-09T00:31:55.184Z,8.75
2023-01-09T00:32:36.912Z,8.54
2023-01-09T00:33:19.364Z,8.70
2023-01-09T00:34:05.177Z,8.70
2023-01-09T00:34:47.434Z,8.70
2023-01-09T00:35:29.377Z,8.58
2023-01-09T00:36:11.836Z,8.72
2023-01-09T00:36:55.263Z,8.70
2023-01-09T00:37:36.872Z,8.71
2023-01-09T00:38:18.450Z,8.59
2023-01-09T00:39:00.053Z,8.70
2023-01-09T00:39:42.317Z,8.67
2023-01-09T00:40:23.959Z,8.68
2023-01-09T00:41:08.942Z,8.62
2023-01-09T00:41:54.907Z,8.67
2023-01-09T00:42:37.564Z,8.62
2023-01-09T00:43:20.202Z,8.60
2023-01-09T00:44:08.146Z,8.65
2023-01-09T00:44:54.132Z,8.65
2023-01-09T00:45:35.782Z,8.28
2023-01-09T00:46:20.948Z,8.63
2023-01-09T00:47:08.230Z,8.47
2023-01-09T00:47:52.609Z,8.50
2023-01-09T00:48:37.382Z,8.68
2023-01-09T00:49:19.530Z,8.70
2023-01-09T00:50:07.746Z,8.75
2023-01-09T00:50:49.381Z,8.61
2023-01-09T00:51:31.219Z,8.70
2023-01-09T00:52:13.540Z,8.75
2023-01-09T00:52:59.568Z,8.74
2023-01-09T00:53:43.051Z,8.75
2023-01-09T00:54:25.023Z,8.63
2023-01-09T00:55:07.850Z,8.77
2023-01-09T00:55:51.472Z,8.71
2023-01-09T00:56:34.631Z,8.74
2023-01-09T00:57:16.611Z,8.62
2023-01-09T00:57:58.262Z,8.34
2023-01-09T00:58:39.970Z,8.28
2023-01-09T00:59:22.551Z,8.53
2023-01-09T01:00:04.985Z,8.61
2023-01-09T01:00:46.753Z,8.66
2023-01-09T01:01:28.597Z,8.55
2023-01-09T01:02:10.690Z,8.67
2023-01-09T01:02:52.505Z,8.58
2023-01-09T01:03:34.362Z,8.69
2023-01-09T01:04:34.757Z,8.72
2023-01-09T01:05:35.316Z,8.73
2023-01-09T01:06:35.635Z,8.62
2023-01-09T01:07:36.089Z,8.68
2023-01-09T01:08:19.308Z,8.64
2023-01-09T01:09:01.009Z,8.62
2023-01-09T01:09:42.830Z,8.55
2023-01-09T01:10:25.823Z,8.45
2023-01-09T01:11:10.276Z,8.49
2023-01-09T01:11:51.898Z,8.45
2023-01-09T01:12:33.569Z,8.52
2023-01-09T01:13:15.292Z,8.47
2023-01-09T01:13:56.901Z,8.50
2023-01-09T01:14:39.178Z,8.54
2023-01-09T01:15:21.900Z,8.54
2023-01-09T01:16:05.597Z,8.55
2023-01-09T01:16:47.273Z,8.56
2023-01-09T01:17:28.914Z,8.59
2023-01-09T01:18:12.047Z,8.61
2023-01-09T01:18:53.795Z,8.62
2023-01-09T01:19:35.812Z,8.65
2023-01-09T01:20:19.063Z,8.65
2023-01-09T01:21:00.699Z,8.63
2023-01-09T01:21:42.306Z,8.64
2023-01-09T01:22:26.844Z,8.62
2023-01-09T01:23:08.914Z,8.54
2023-01-09T01:23:50.539Z,8.60
2023-01-09T01:24:32.157Z,8.55
2023-01-09T01:25:17.117Z,8.62
2023-01-09T01:26:08.339Z,8.66
2023-01-09T01:26:50.067Z,8.67
2023-01-09T01:27:31.664Z,8.68
2023-01-09T01:28:13.363Z,8.69
2023-01-09T01:28:54.955Z,8.69
2023-01-09T01:29:36.615Z,8.63
2023-01-09T01:30:19.768Z,8.68
2023-01-09T01:31:01.953Z,8.61
2023-01-09T01:31:43.588Z,8.53
2023-01-09T01:32:25.200Z,8.62
2023-01-09T01:33:06.897Z,8.61
2023-01-09T01:33:48.485Z,8.50
2023-01-09T01:34:30.711Z,8.60
2023-01-09T01:35:13.097Z,8.64
2023-01-09T01:36:07.987Z,8.67
2023-01-09T01:36:49.590Z,8.60
2023-01-09T01:37:31.555Z,8.70
2023-01-09T01:38:13.204Z,8.71
2023-01-09T01:38:54.952Z,8.64
2023-01-09T01:39:36.617Z,8.57
2023-01-09T01:40:18.431Z,8.65
2023-01-09T01:41:02.203Z,8.62
2023-01-09T01:41:43.822Z,8.56
2023-01-09T01:42:25.837Z,8.63
2023-01-09T01:43:12.048Z,8.62
2023-01-09T01:44:02.830Z,8.66
2023-01-09T01:45:01.050Z,8.62
2023-01-09T01:45:42.860Z,8.61
2023-01-09T01:46:24.653Z,8.54
2023-01-09T01:47:06.426Z,8.60
2023-01-09T01:47:50.817Z,8.53
2023-01-09T01:48:32.463Z,8.62
2023-01-09T01:49:20.176Z,8.63
2023-01-09T01:50:24.819Z,8.60
2023-01-09T01:51:07.846Z,8.66
2023-01-09T01:51:53.703Z,8.67
2023-01-09T01:52:37.347Z,8.59
2023-01-09T01:53:20.968Z,8.67
2023-01-09T01:54:08.151Z,8.66
2023-01-09T01:54:49.928Z,8.48
2023-01-09T01:55:34.064Z,8.67
2023-01-09T01:56:19.965Z,8.64
2023-01-09T01:57:03.870Z,8.58
2023-01-09T01:57:49.101Z,8.65
2023-01-09T01:58:31.210Z,8.69
2023-01-09T01:59:23.230Z,8.27
2023-01-09T02:00:05.667Z,8.60
2023-01-09T02:00:50.827Z,8.67
2023-01-09T02:01:33.833Z,8.58
2023-01-09T02:02:18.966Z,8.54
2023-01-09T02:03:01.870Z,8.53
2023-01-09T02:03:44.944Z,8.53
2023-01-09T02:04:27.218Z,8.54
2023-01-09T02:05:09.726Z,8.60
2023-01-09T02:05:51.389Z,8.64
2023-01-09T02:06:34.581Z,8.68
2023-01-09T02:07:16.350Z,8.68
2023-01-09T02:07:58.001Z,8.68
2023-01-09T02:08:39.648Z,8.70
2023-01-09T02:09:22.931Z,8.62
2023-01-09T02:10:04.935Z,8.72
2023-01-09T02:10:47.520Z,8.70
2023-01-09T02:11:29.149Z,8.69
2023-01-09T02:12:25.912Z,8.71
2023-01-09T02:13:09.197Z,8.71
2023-01-09T02:13:51.822Z,8.65
2023-01-09T02:14:33.469Z,8.71
2023-01-09T02:15:15.969Z,8.69
2023-01-09T02:16:15.634Z,8.72
2023-01-09T02:17:03.188Z,8.72
2023-01-09T02:18:15.462Z,8.72
2023-01-09T02:19:20.830Z,8.70
2023-01-09T02:20:27.095Z,8.68
2023-01-09T02:21:17.468Z,8.68
2023-01-09T02:22:07.611Z,8.72
2023-01-09T02:23:26.622Z,8.76
2023-01-09T02:24:30.880Z,8.80
2023-01-09T02:25:27.354Z,8.81
2023-01-09T02:26:36.243Z,8.83
2023-01-09T02:27:56.452Z,8.81
2023-01-09T02:28:40.934Z,8.79
2023-01-09T02:29:56.806Z,8.78
2023-01-09T02:30:44.706Z,8.77
2023-01-09T02:31:41.991Z,8.70
2023-01-09T02:32:49.719Z,8.65
2023-01-09T02:33:52.576Z,8.76
2023-01-09T02:34:51.148Z,8.78
2023-01-09T02:35:47.952Z,8.83
2023-01-09T02:36:57.219Z,8.86
2023-01-09T02:38:12.464Z,8.90
2023-01-09T02:38:59.763Z,8.91
2023-01-09T02:39:57.189Z,8.86
2023-01-09T02:41:03.552Z,8.92
2023-01-09T02:41:58.807Z,8.96
2023-01-09T02:42:42.952Z,8.81
2023-01-09T02:43:26.218Z,8.90
2023-01-09T02:44:28.066Z,8.86
2023-01-09T02:45:10.179Z,8.81
2023-01-09T02:45:51.829Z,8.59
2023-01-09T02:46:33.945Z,8.78
2023-01-09T02:47:15.468Z,8.82
2023-01-09T02:47:57.166Z,8.89
2023-01-09T02:48:45.526Z,8.89
2023-01-09T02:49:27.611Z,8.88
2023-01-09T02:50:19.430Z,8.81
2023-01-09T02:51:35.630Z,8.79
2023-01-09T02:52:48.577Z,8.79
2023-01-09T02:53:45.302Z,8.79
2023-01-09T02:54:51.135Z,8.60
2023-01-09T02:56:09.652Z,8.78
2023-01-09T02:57:09.798Z,8.77
2023-01-09T02:57:57.387Z,8.75
2023-01-09T02:59:06.854Z,8.72
2023-01-09T03:00:14.536Z,8.73
2023-01-09T03:01:14.372Z,8.76
2023-01-09T03:02:04.417Z,8.85
2023-01-09T03:03:04.690Z,8.74
2023-01-09T03:03:58.106Z,8.88
2023-01-09T03:04:56.060Z,8.87
2023-01-09T03:05:44.625Z,8.87
2023-01-09T03:06:32.010Z,8.85
2023-01-09T03:07:16.639Z,8.84
2023-01-09T03:08:08.389Z,8.67
2023-01-09T03:08:57.181Z,8.78
2023-01-09T03:09:41.418Z,8.76
2023-01-09T03:10:31.953Z,8.77
2023-01-09T03:11:13.774Z,8.77
2023-01-09T03:12:21.336Z,8.76
2023-01-09T03:13:03.567Z,8.69
2023-01-09T03:13:47.344Z,8.72
2023-01-09T03:14:32.528Z,8.58
2023-01-09T03:15:18.014Z,8.72
2023-01-09T03:16:05.361Z,8.73
2023-01-09T03:16:52.104Z,8.73
2023-01-09T03:17:38.510Z,8.74
2023-01-09T03:18:24.508Z,8.71
2023-01-09T03:19:11.420Z,8.71
2023-01-09T03:19:54.928Z,8.75
2023-01-09T03:20:38.700Z,8.74
2023-01-09T03:21:22.301Z,8.73
2023-01-09T03:22:04.245Z,8.75
2023-01-09T03:22:54.514Z,8.70
2023-01-09T03:23:55.884Z,8.73
2023-01-09T03:24:38.847Z,8.66
2023-01-09T03:25:20.957Z,8.74
2023-01-09T03:26:02.612Z,8.68
2023-01-09T03:26:44.474Z,8.72
2023-01-09T03:27:26.127Z,8.78
2023-01-09T03:28:18.565Z,8.84
2023-01-09T03:29:00.623Z,8.74
2023-01-09T03:29:42.398Z,8.88
2023-01-09T03:30:25.132Z,8.87
2023-01-09T03:31:06.804Z,8.89
2023-01-09T03:31:48.568Z,8.90
2023-01-09T03:32:30.292Z,8.80
2023-01-09T03:33:11.934Z,8.78
2023-01-09T03:33:53.839Z,8.86
2023-01-09T03:34:35.481Z,8.82
2023-01-09T03:35:17.108Z,8.30
2023-01-09T03:35:58.850Z,8.63
2023-01-09T03:36:40.624Z,8.69
2023-01-09T03:37:22.258Z,8.70
2023-01-09T03:38:04.115Z,8.63
2023-01-09T03:38:46.220Z,8.68
2023-01-09T03:39:27.891Z,8.40
2023-01-09T03:40:10.321Z,8.60
2023-01-09T03:40:51.990Z,8.43
2023-01-09T03:41:33.607Z,8.49
2023-01-09T03:42:15.223Z,8.50
2023-01-09T03:42:56.851Z,8.48
2023-01-09T03:43:38.590Z,8.45
2023-01-09T03:44:20.280Z,8.43
2023-01-09T03:45:02.000Z,8.40
2023-01-09T03:45:45.033Z,8.36
2023-01-09T03:46:26.646Z,8.24
2023-01-09T03:47:08.220Z,8.19
2023-01-09T03:47:52.267Z,8.22
2023-01-09T03:48:34.562Z,8.21
2023-01-09T03:49:17.593Z,8.10
2023-01-09T03:49:59.257Z,8.12
2023-01-09T03:50:45.701Z,8.01
2023-01-09T03:51:27.284Z,8.06
2023-01-09T03:52:08.963Z,8.04
2023-01-09T03:52:50.567Z,8.01
2023-01-09T03:53:32.160Z,7.97
2023-01-09T03:54:13.838Z,7.97
2023-01-09T03:54:55.443Z,7.92
2023-01-09T03:55:37.052Z,7.86
2023-01-09T03:56:18.623Z,7.87
2023-01-09T03:57:00.162Z,7.65
2023-01-09T03:57:41.757Z,7.81
2023-01-09T03:58:24.048Z,7.78
2023-01-09T03:59:05.649Z,7.76
2023-01-09T03:59:47.300Z,7.80
2023-01-09T04:00:28.921Z,7.81
2023-01-09T04:01:12.791Z,7.80
2023-01-09T04:01:54.586Z,7.76
2023-01-09T04:02:36.622Z,7.74
2023-01-09T04:03:20.804Z,7.74
2023-01-09T04:04:02.447Z,7.67
2023-01-09T04:04:44.240Z,7.71
2023-01-09T04:05:25.849Z,7.71
2023-01-09T04:06:07.679Z,7.68
2023-01-09T04:06:49.310Z,7.68
2023-01-09T04:07:30.943Z,7.68
2023-01-09T04:08:13.199Z,7.66
2023-01-09T04:08:54.799Z,7.68
2023-01-09T04:09:36.568Z,7.58
2023-01-09T04:10:18.187Z,7.50
2023-01-09T04:10:59.794Z,7.62
2023-01-09T04:11:41.400Z,7.69
2023-01-09T04:12:23.016Z,7.61
2023-01-09T04:13:04.592Z,7.67
2023-01-09T04:13:46.193Z,7.69
2023-01-09T04:14:27.785Z,7.67
2023-01-09T04:15:09.823Z,7.61
2023-01-09T04:15:51.439Z,7.70
2023-01-09T04:16:33.215Z,7.74
2023-01-09T04:17:16.513Z,7.77
2023-01-09T04:17:58.265Z,7.70
2023-01-09T04:18:39.833Z,7.75
2023-01-09T04:19:21.992Z,7.77
2023-01-09T04:20:04.182Z,7.67
2023-01-09T04:20:49.020Z,7.70
2023-01-09T04:21:30.656Z,7.71
2023-01-09T04:22:12.330Z,7.75
2023-01-09T04:22:53.935Z,7.76
2023-01-09T04:23:35.551Z,7.85
2023-01-09T04:24:17.296Z,7.79
2023-01-09T04:24:58.889Z,7.86
2023-01-09T04:25:40.453Z,7.85
2023-01-09T04:26:22.034Z,7.81
2023-01-09T04:27:03.821Z,7.86
2023-01-09T04:27:45.394Z,7.87
2023-01-09T04:28:27.049Z,7.86
2023-01-09T04:29:08.627Z,7.89
2023-01-09T04:29:50.227Z,7.91
2023-01-09T04:30:31.781Z,7.76
2023-01-09T04:31:13.427Z,7.88
2023-01-09T04:31:55.173Z,7.85
2023-01-09T04:32:36.864Z,7.85
2023-01-09T04:33:18.501Z,7.64
2023-01-09T04:34:00.218Z,7.61
2023-01-09T04:34:41.822Z,7.78
2023-01-09T04:35:23.501Z,7.77
2023-01-09T04:36:05.567Z,7.78
2023-01-09T04:36:47.191Z,7.77
2023-01-09T04:37:28.762Z,7.69
2023-01-09T04:38:10.359Z,7.72
2023-01-09T04:38:51.959Z,7.64
2023-01-09T04:39:33.552Z,7.70
2023-01-09T04:40:15.369Z,7.63
2023-01-09T04:40:56.998Z,7.57
2023-01-09T04:41:51.452Z,7.66
2023-01-09T04:42:33.055Z,7.51
2023-01-09T04:43:15.057Z,7.71
2023-01-09T04:43:56.658Z,7.70
2023-01-09T04:44:38.316Z,7.68
2023-01-09T04:45:20.017Z,7.68
2023-01-09T04:46:02.877Z,7.70
2023-01-09T04:46:45.136Z,7.50
2023-01-09T04:47:26.778Z,7.64
2023-01-09T04:48:08.358Z,7.64
2023-01-09T04:48:49.915Z,7.60
2023-01-09T04:49:31.535Z,7.36
2023-01-09T04:50:13.343Z,7.24
2023-01-09T04:50:54.920Z,7.59
2023-01-09T04:51:36.479Z,7.49
2023-01-09T04:52:18.145Z,7.59
2023-01-09T04:52:59.826Z,7.45
2023-01-09T04:53:41.472Z,7.62
2023-01-09T04:54:23.240Z,7.62
2023-01-09T04:55:05.387Z,7.61
2023-01-09T04:55:46.981Z,7.60
2023-01-09T04:56:31.280Z,7.44
2023-01-09T04:57:12.846Z,7.58
2023-01-09T04:57:54.429Z,7.35
2023-01-09T04:58:35.998Z,7.53
2023-01-09T04:59:17.562Z,7.55
2023-01-09T04:59:59.132Z,7.38
2023-01-09T05:00:40.699Z,7.54
2023-01-09T05:01:22.808Z,7.40
2023-01-09T05:02:04.577Z,7.51
2023-01-09T05:02:46.221Z,7.47
2023-01-09T05:03:28.001Z,7.50
2023-01-09T05:04:09.694Z,7.46
2023-01-09T05:04:51.284Z,7.54
2023-01-09T05:05:33.148Z,7.54
2023-01-09T05:06:14.793Z,7.48
2023-01-09T05:06:56.384Z,7.45
2023-01-09T05:07:38.074Z,7.39
2023-01-09T05:08:20.078Z,7.28
2023-01-09T05:09:04.327Z,7.41
2023-01-09T05:09:45.956Z,7.40
2023-01-09T05:10:27.537Z,7.38
2023-01-09T05:11:09.197Z,7.24
2023-01-09T05:11:51.208Z,7.33
2023-01-09T05:12:34.594Z,7.22
2023-01-09T05:13:16.214Z,7.36
2023-01-09T05:13:57.765Z,7.28
2023-01-09T05:14:39.364Z,7.33
2023-01-09T05:15:21.636Z,7.30
2023-01-09T05:16:03.314Z,7.24
2023-01-09T05:16:45.025Z,7.13
2023-01-09T05:17:26.595Z,7.27
2023-01-09T05:18:08.172Z,7.27
2023-01-09T05:18:49.779Z,7.25
2023-01-09T05:19:31.479Z,7.04
2023-01-09T05:20:13.174Z,7.24
2023-01-09T05:20:54.840Z,7.16
2023-01-09T05:21:36.509Z,7.29
2023-01-09T05:22:18.099Z,7.31
2023-01-09T05:22:59.703Z,7.31
2023-01-09T05:23:41.304Z,7.16
2023-01-09T05:24:22.935Z,6.92
2023-01-09T05:25:05.025Z,7.33
2023-01-09T05:25:46.688Z,7.17
2023-01-09T05:26:28.395Z,7.30
2023-01-09T05:27:09.963Z,7.28
2023-01-09T05:27:51.518Z,7.27
2023-01-09T05:28:33.349Z,7.17
2023-01-09T05:29:14.921Z,6.98
2023-01-09T05:29:56.608Z,7.28
2023-01-09T05:30:38.253Z,7.25
2023-01-09T05:31:20.874Z,7.25
2023-01-09T05:32:02.533Z,7.16
2023-01-09T05:32:44.212Z,7.28
2023-01-09T05:33:25.893Z,7.26
2023-01-09T05:34:07.553Z,7.26
2023-01-09T05:34:49.149Z,7.22
2023-01-09T05:35:30.801Z,7.16
2023-01-09T05:36:12.401Z,7.24
2023-01-09T05:36:53.978Z,7.17
2023-01-09T05:37:35.632Z,7.08
2023-01-09T05:38:17.290Z,7.25
2023-01-09T05:38:58.990Z,7.22
2023-01-09T05:39:40.626Z,7.10
2023-01-09T05:40:24.825Z,7.32
2023-01-09T05:41:10.568Z,7.32
2023-01-09T05:41:52.172Z,7.11
2023-01-09T05:42:33.804Z,7.36
2023-01-09T05:43:15.412Z,7.10
2023-01-09T05:43:57.003Z,7.30
2023-01-09T05:44:38.620Z,6.96
2023-01-09T05:45:20.232Z,7.30
2023-01-09T05:46:02.021Z,7.26
2023-01-09T05:46:43.743Z,7.25
2023-01-09T05:47:25.385Z,7.29
2023-01-09T05:48:06.952Z,7.19
2023-01-09T05:48:48.619Z,7.16
2023-01-09T05:49:30.199Z,7.14
2023-01-09T05:50:13.156Z,6.68
2023-01-09T05:50:54.917Z,7.09
2023-01-09T05:51:36.593Z,7.11
2023-01-09T05:52:18.277Z,7.18
2023-01-09T05:52:59.904Z,7.17
2023-01-09T05:53:41.501Z,7.15
2023-01-09T05:54:25.191Z,7.10
2023-01-09T05:55:07.766Z,7.15
2023-01-09T05:55:49.420Z,7.13
2023-01-09T05:56:31.076Z,7.08
2023-01-09T05:57:12.627Z,6.92
2023-01-09T05:57:54.223Z,7.08
2023-01-09T05:58:35.826Z,7.08
2023-01-09T05:59:17.494Z,7.09
2023-01-09T05:59:59.104Z,7.09
2023-01-09T06:00:40.761Z,7.07
2023-01-09T06:01:23.875Z,6.84
2023-01-09T06:02:05.971Z,6.98
2023-01-09T06:02:47.635Z,7.00
2023-01-09T06:03:29.260Z,6.90
2023-01-09T06:04:10.992Z,7.00
2023-01-09T06:04:52.601Z,7.00
2023-01-09T06:05:34.286Z,6.96
2023-01-09T06:06:15.914Z,6.88
2023-01-09T06:06:57.579Z,6.94
2023-01-09T06:07:40.604Z,6.97
2023-01-09T06:08:22.266Z,6.92
2023-01-09T06:09:03.919Z,6.95
2023-01-09T06:09:45.536Z,6.93
2023-01-09T06:10:27.190Z,6.94
2023-01-09T06:11:08.806Z,6.92
2023-01-09T06:11:50.605Z,6.84
2023-01-09T06:12:32.248Z,6.89
2023-01-09T06:13:14.257Z,6.75
2023-01-09T06:13:55.853Z,6.87
2023-01-09T06:14:37.477Z,6.88
2023-01-09T06:15:20.533Z,6.85
2023-01-09T06:16:02.146Z,6.82
2023-01-09T06:16:43.906Z,6.91
2023-01-09T06:17:25.540Z,6.84
2023-01-09T06:18:07.210Z,6.40
2023-01-09T06:18:48.842Z,6.94
2023-01-09T06:19:30.438Z,6.88
2023-01-09T06:20:12.112Z,6.94
2023-01-09T06:20:53.728Z,7.01
2023-01-09T06:21:35.300Z,6.99
2023-01-09T06:22:17.044Z,6.95
2023-01-09T06:22:58.655Z,6.82
2023-01-09T06:23:40.325Z,6.92
2023-01-09T06:24:21.932Z,7.05
2023-01-09T06:25:03.923Z,7.01
2023-01-09T06:25:45.517Z,7.03
2023-01-09T06:26:27.218Z,6.98
2023-01-09T06:27:08.795Z,6.83
2023-01-09T06:27:52.076Z,6.97
2023-01-09T06:28:33.797Z,6.89
2023-01-09T06:29:15.361Z,6.85
2023-01-09T06:29:56.906Z,7.03
2023-01-09T06:30:38.522Z,6.82
2023-01-09T06:31:20.137Z,6.65
2023-01-09T06:32:01.724Z,6.84
2023-01-09T06:32:43.299Z,7.04
2023-01-09T06:33:24.961Z,6.89
2023-01-09T06:34:06.566Z,6.93
2023-01-09T06:34:48.180Z,7.13
2023-01-09T06:35:29.798Z,7.03
2023-01-09T06:36:11.382Z,7.02
2023-01-09T06:36:52.985Z,7.16
2023-01-09T06:37:34.740Z,7.16
2023-01-09T06:38:16.434Z,7.14
2023-01-09T06:38:58.053Z,7.14
2023-01-09T06:39:39.676Z,7.15
2023-01-09T06:40:21.351Z,7.14
2023-01-09T06:41:02.960Z,7.13
2023-01-09T06:41:47.070Z,7.08
2023-01-09T06:42:29.986Z,7.15
2023-01-09T06:43:11.648Z,7.16
2023-01-09T06:43:53.369Z,6.98
2023-01-09T06:44:36.641Z,7.13
2023-01-09T06:45:18.411Z,7.12
2023-01-09T06:46:00.116Z,7.13
2023-01-09T06:46:41.833Z,7.12
2023-01-09T06:47:23.438Z,7.13
2023-01-09T06:48:05.236Z,7.15
2023-01-09T06:48:46.786Z,7.13
2023-01-09T06:49:28.568Z,7.13
2023-01-09T06:50:11.101Z,7.09
2023-01-09T06:50:53.531Z,7.14
2023-01-09T06:51:35.527Z,6.99
2023-01-09T06:52:17.132Z,7.10
2023-01-09T06:52:58.748Z,6.89
2023-01-09T06:53:40.522Z,7.02
2023-01-09T06:54:22.536Z,7.12
2023-01-09T06:55:04.747Z,6.99
2023-01-09T06:55:46.699Z,7.07
2023-01-09T06:56:28.274Z,7.02
2023-01-09T06:57:10.384Z,7.15
2023-01-09T06:57:52.522Z,7.18
2023-01-09T06:58:34.112Z,7.19
2023-01-09T06:59:15.665Z,7.14
2023-01-09T06:59:57.835Z,7.20
2023-01-09T07:00:39.464Z,7.20
2023-01-09T07:01:21.414Z,7.20
2023-01-09T07:02:03.236Z,7.20
2023-01-09T07:02:44.916Z,7.21
2023-01-09T07:03:26.544Z,7.15
2023-01-09T07:04:10.880Z,7.09
2023-01-09T07:04:52.637Z,7.25
2023-01-09T07:05:40.063Z,7.27
2023-01-09T07:06:21.922Z,7.21
2023-01-09T07:07:03.542Z,6.89
2023-01-09T07:07:45.145Z,7.24
2023-01-09T07:08:26.852Z,7.25
2023-01-09T07:09:08.591Z,7.24
2023-01-09T07:09:50.286Z,7.22
2023-01-09T07:10:31.903Z,7.34
2023-01-09T07:11:13.491Z,7.34
2023-01-09T07:11:55.036Z,7.35
2023-01-09T07:12:36.711Z,7.33
2023-01-09T07:13:18.315Z,7.40
2023-01-09T07:13:59.979Z,7.41
2023-01-09T07:14:41.801Z,7.26
2023-01-09T07:15:23.457Z,7.38
2023-01-09T07:16:05.543Z,7.50
2023-01-09T07:16:47.211Z,7.55
2023-01-09T07:17:28.802Z,7.51
2023-01-09T07:18:10.362Z,7.55
2023-01-09T07:18:52.482Z,7.61
2023-01-09T07:19:34.054Z,7.38
2023-01-09T07:20:16.336Z,7.58
2023-01-09T07:20:57.939Z,7.56
2023-01-09T07:21:39.566Z,7.31
2023-01-09T07:22:21.171Z,7.52
2023-01-09T07:23:02.764Z,7.44
2023-01-09T07:23:44.349Z,7.46
2023-01-09T07:24:25.907Z,7.48
2023-01-09T07:25:07.835Z,7.34
2023-01-09T07:25:51.711Z,7.48
2023-01-09T07:26:33.333Z,7.36
2023-01-09T07:27:15.025Z,7.46
2023-01-09T07:27:56.631Z,7.38
2023-01-09T07:28:38.405Z,7.16
2023-01-09T07:29:20.075Z,7.48
2023-01-09T07:30:01.831Z,7.44
2023-01-09T07:30:43.463Z,7.52
2023-01-09T07:31:25.178Z,7.54
2023-01-09T07:32:07.174Z,7.54
2023-01-09T07:32:48.737Z,7.34
2023-01-09T07:33:30.697Z,7.47
2023-01-09T07:34:12.316Z,7.47
2023-01-09T07:34:53.950Z,7.44
2023-01-09T07:35:35.564Z,7.35
2023-01-09T07:36:17.203Z,7.45
2023-01-09T07:36:58.910Z,7.54
2023-01-09T07:37:40.598Z,7.52
2023-01-09T07:38:22.252Z,7.51
2023-01-09T07:39:03.818Z,7.48
2023-01-09T07:39:45.537Z,7.39
2023-01-09T07:40:27.200Z,7.48
2023-01-09T07:41:08.960Z,7.48
2023-01-09T07:41:50.628Z,7.50
2023-01-09T07:42:32.519Z,7.56
2023-01-09T07:43:14.230Z,7.58
2023-01-09T07:43:57.136Z,7.64
2023-01-09T07:44:38.774Z,7.61
2023-01-09T07:45:20.382Z,7.51
2023-01-09T07:46:02.037Z,7.58
2023-01-09T07:46:43.896Z,7.40
2023-01-09T07:47:25.550Z,7.34
2023-01-09T07:48:07.158Z,7.54
2023-01-09T07:48:48.759Z,7.41
2023-01-09T07:49:30.392Z,7.57
2023-01-09T07:50:12.087Z,7.52
2023-01-09T07:50:53.728Z,7.56
2023-01-09T07:51:35.470Z,7.56
2023-01-09T07:52:17.033Z,7.56
2023-01-09T07:52:58.647Z,7.50
2023-01-09T07:53:40.283Z,7.50
2023-01-09T07:54:22.195Z,7.62
2023-01-09T07:55:04.095Z,7.57
2023-01-09T07:55:45.734Z,7.37
2023-01-09T07:56:27.362Z,7.58
2023-01-09T07:57:08.989Z,7.61
2023-01-09T07:57:51.225Z,7.62
2023-01-09T07:58:32.865Z,7.62
2023-01-09T07:59:14.478Z,7.62
2023-01-09T07:59:56.539Z,7.56
2023-01-09T08:00:38.361Z,7.66
2023-01-09T08:01:20.091Z,7.59
2023-01-09T08:02:05.488Z,7.70
2023-01-09T08:02:54.100Z,7.80
2023-01-09T08:03:38.434Z,7.82
2023-01-09T08:04:20.125Z,7.87
2023-01-09T08:05:01.773Z,7.61
2023-01-09T08:05:43.532Z,7.87
2023-01-09T08:06:25.183Z,7.83
2023-01-09T08:07:06.821Z,7.75
2023-01-09T08:07:51.666Z,7.75
2023-01-09T08:08:33.642Z,7.81
2023-01-09T08:09:15.416Z,7.71
2023-01-09T08:09:57.041Z,7.90
2023-01-09T08:10:38.662Z,7.82
2023-01-09T08:11:20.365Z,7.88
2023-01-09T08:12:04.101Z,7.83
2023-01-09T08:12:47.143Z,7.79
2023-01-09T08:13:28.805Z,7.83
2023-01-09T08:14:10.427Z,7.99
2023-01-09T08:14:52.085Z,8.00
2023-01-09T08:15:33.808Z,7.91
2023-01-09T08:16:16.079Z,7.90
2023-01-09T08:16:57.669Z,8.05
2023-01-09T08:17:43.754Z,8.08
2023-01-09T08:18:25.440Z,8.07
2023-01-09T08:19:07.274Z,8.10
2023-01-09T08:19:48.883Z,8.10
2023-01-09T08:20:30.488Z,8.12
2023-01-09T08:21:12.389Z,8.11
2023-01-09T08:21:54.032Z,7.65
2023-01-09T08:22:35.636Z,8.05
2023-01-09T08:23:17.213Z,7.98
2023-01-09T08:23:58.797Z,7.97
2023-01-09T08:24:40.380Z,7.85
2023-01-09T08:25:22.185Z,7.92
2023-01-09T08:26:04.658Z,7.91
2023-01-09T08:26:46.301Z,7.93
2023-01-09T08:27:28.052Z,7.95
2023-01-09T08:28:09.762Z,7.95
2023-01-09T08:28:51.404Z,7.81
2023-01-09T08:29:33.048Z,7.92
2023-01-09T08:30:15.579Z,7.92
2023-01-09T08:30:57.296Z,7.94
2023-01-09T08:31:39.034Z,7.57
2023-01-09T08:32:20.650Z,7.80
2023-01-09T08:33:02.355Z,7.90
2023-01-09T08:33:44.383Z,7.85
2023-01-09T08:34:26.074Z,7.94
2023-01-09T08:35:08.800Z,7.82
2023-01-09T08:35:50.436Z,7.98
2023-01-09T08:36:32.149Z,7.98
2023-01-09T08:37:13.750Z,7.99
2023-01-09T08:37:55.491Z,7.91
2023-01-09T08:38:37.124Z,7.99
2023-01-09T08:39:18.877Z,7.88
2023-01-09T08:40:00.448Z,8.04
2023-01-09T08:40:42.112Z,7.63
2023-01-09T08:41:42.039Z,8.06
2023-01-09T08:42:42.237Z,8.08
2023-01-09T08:43:42.522Z,8.26
2023-01-09T08:44:42.740Z,8.21
2023-01-09T08:45:43.062Z,8.22
2023-01-09T08:46:43.435Z,8.21
2023-01-09T08:47:25.245Z,8.19
2023-01-09T08:48:07.212Z,8.32
2023-01-09T08:48:48.880Z,8.47
2023-01-09T08:49:30.530Z,8.45
2023-01-09T08:50:13.231Z,8.43
2023-01-09T08:50:54.861Z,8.40
2023-01-09T08:51:36.496Z,8.29
2023-01-09T08:52:18.273Z,8.28
2023-01-09T08:52:59.881Z,8.29
2023-01-09T08:53:41.576Z,8.34
2023-01-09T08:54:23.204Z,8.58
2023-01-09T08:55:05.201Z,8.58
2023-01-09T08:55:46.875Z,8.65
2023-01-09T08:56:28.479Z,8.60
2023-01-09T08:57:10.108Z,8.60
2023-01-09T08:57:53.256Z,8.47
2023-01-09T08:58:35.003Z,8.53
2023-01-09T08:59:16.677Z,8.62
2023-01-09T08:59:58.605Z,8.38
2023-01-09T09:00:40.285Z,8.64
2023-01-09T09:01:21.935Z,8.74
2023-01-09T09:02:03.679Z,8.67
2023-01-09T09:02:45.790Z,8.67
2023-01-09T09:03:27.464Z,8.68
2023-01-09T09:04:09.229Z,8.70
2023-01-09T09:04:53.026Z,8.77
2023-01-09T09:05:34.654Z,8.75
2023-01-09T09:06:16.328Z,8.68
2023-01-09T09:06:58.009Z,8.63
2023-01-09T09:07:39.628Z,8.61
2023-01-09T09:08:21.224Z,8.61
2023-01-09T09:09:03.780Z,8.52
2023-01-09T09:09:45.411Z,8.55
2023-01-09T09:10:28.887Z,8.53
2023-01-09T09:11:10.496Z,8.39
2023-01-09T09:11:52.231Z,8.55
2023-01-09T09:12:33.835Z,8.53
2023-01-09T09:13:15.468Z,8.52
2023-01-09T09:13:57.854Z,8.51
2023-01-09T09:14:57.804Z,8.44
2023-01-09T09:15:39.516Z,8.54
2023-01-09T09:16:21.225Z,8.54
2023-01-09T09:17:02.952Z,8.64
2023-01-09T09:17:45.369Z,8.67
2023-01-09T09:18:29.508Z,8.67
2023-01-09T09:19:11.121Z,8.62
2023-01-09T09:19:52.751Z,8.64
2023-01-09T09:20:37.436Z,8.65
2023-01-09T09:21:20.516Z,8.62
2023-01-09T09:22:02.206Z,8.41
2023-01-09T09:22:46.559Z,8.47
2023-01-09T09:23:28.151Z,8.67
2023-01-09T09:24:09.840Z,8.68
2023-01-09T09:24:51.483Z,8.69
2023-01-09T09:25:33.186Z,8.73
2023-01-09T09:26:14.839Z,8.74
2023-01-09T09:26:56.455Z,8.59
2023-01-09T09:27:38.081Z,8.75
2023-01-09T09:28:19.722Z,8.71
2023-01-09T09:29:01.381Z,8.40
2023-01-09T09:29:43.074Z,8.59
2023-01-09T09:30:25.030Z,8.60
2023-01-09T09:31:07.858Z,8.65
2023-01-09T09:31:49.575Z,8.58
2023-01-09T09:32:32.200Z,8.59
2023-01-09T09:33:13.848Z,8.29
2023-01-09T09:33:56.581Z,8.60
2023-01-09T09:34:38.248Z,8.56
2023-01-09T09:35:21.169Z,8.46
2023-01-09T09:36:02.947Z,8.51
2023-01-09T09:36:44.733Z,8.48
2023-01-09T09:37:26.391Z,8.59
2023-01-09T09:38:07.993Z,8.63
2023-01-09T09:38:49.654Z,8.66
2023-01-09T09:39:31.291Z,8.68
2023-01-09T09:40:23.784Z,8.52
2023-01-09T09:41:37.129Z,8.72
2023-01-09T09:42:59.540Z,8.67